Nestor — V2FB3 — position and weather

sailwx.info

Track history (hours):
 
Tides and Currents Weather Stations Pressure Air Temp Water Temp Dewpoint Dewpoint Depression Visibility Wind Speed Wind Dir Waves Ship Positions

Nestor

Last reported at 2018-Feb-15 06:37 UTC. Time now 2018-Feb-22 13:16 UTC.
Position N 49°51' W 003°22'.

Length 88 m; draft 5.3 m.

Type: Cargo ship. MMSI: 305620000.

Date/timePositionNaut miles runAvg speedWind from/ knotsBaromVisibWave heightAir tempDewpointWater temp
2018-Feb-15 06:37N 49°51' W 003°22'1 5.6
2018-Feb-15 06:30N 49°52' W 003°22'3 5.5
2018-Feb-15 06:01N 49°53' W 003°18'3 5.6
2018-Feb-15 05:30N 49°55' W 003°14'3 6.0
2018-Feb-15 05:01N 49°56' W 003°10'3 6.3
2018-Feb-15 04:31N 49°58' W 003°06'3 6.8
2018-Feb-15 04:01N 49°59' W 003°02'4 7.3
2018-Feb-15 03:31N 50°01' W 002°56'4 8.1
2018-Feb-15 03:00N 50°02' W 002°50'5 8.9
2018-Feb-15 02:29N 50°03' W 002°43'94 6.6
2018-Feb-14 12:10N 50°29' W 000°21'1 6.4
2018-Feb-14 12:01N 50°29' W 000°20'3 6.5
2018-Feb-14 11:31N 50°30' W 000°15'3 6.9
2018-Feb-14 11:01N 50°31' W 000°09'4 7.0
2018-Feb-14 10:31N 50°32' W 000°04'4 7.2
2018-Feb-14 10:00N 50°33' E 000°02'4 7.1
2018-Feb-14 09:30N 50°34' E 000°07'3 6.9
2018-Feb-14 09:00N 50°34' E 000°12'3 6.7
2018-Feb-14 08:30N 50°35' E 000°17'3 6.6
2018-Feb-14 08:00N 50°36' E 000°22'3 6.8
2018-Feb-14 07:30N 50°37' E 000°27'4 7.4
2018-Feb-14 07:00N 50°38' E 000°33'4 8.0
2018-Feb-14 06:30N 50°41' E 000°38'4 8.6
2018-Feb-14 06:00N 50°43' E 000°44'5 9.3
2018-Feb-14 05:28N 50°46' E 000°50'5 9.8
2018-Feb-14 04:57N 50°49' E 000°57'9 9.7
2018-Feb-14 04:03N 50°54' E 001°08'1 9.9
2018-Feb-14 03:57N 50°55' E 001°09'4 8.8
2018-Feb-14 03:30N 50°57' E 001°14'4 8.5
2018-Feb-14 03:00N 50°60' E 001°19'4 7.7
2018-Feb-14 02:30N 51°02' E 001°24'4 7.3
2018-Feb-14 02:01N 51°05' E 001°28'3 6.8
2018-Feb-14 01:31N 51°07' E 001°32'3 6.1
2018-Feb-14 01:01N 51°09' E 001°36'3 5.8
2018-Feb-14 00:31N 51°11' E 001°39'3 5.9
2018-Feb-14 00:01N 51°13' E 001°43'3 5.7
2018-Feb-13 23:30N 51°15' E 001°46'3 5.6
2018-Feb-13 23:01N 51°18' E 001°47'3 5.2
2018-Feb-13 22:30N 51°20' E 001°49'3 5.7
2018-Feb-13 22:00N 51°23' E 001°51'3 6.2
2018-Feb-13 21:31N 51°25' E 001°53'3 6.6
2018-Feb-13 21:00N 51°28' E 001°57'4 7.0
2018-Feb-13 20:30N 51°31' E 002°00'4 7.1
2018-Feb-13 20:00N 51°33' E 002°04'5 7.5
2018-Feb-13 19:15N 51°38' E 002°10'2 7.3
2018-Feb-13 18:58N 51°39' E 002°12'99 5.9
2018-Feb-13 02:21N 52°55' E 003°56'2 6.8
2018-Feb-13 01:59N 52°57' E 003°58'4 6.8
2018-Feb-13 01:27N 52°59' E 004°03'3 6.8
2018-Feb-13 00:59N 53°01' E 004°07'4 7.2
2018-Feb-13 00:29N 53°03' E 004°12'4 7.7
2018-Feb-13 00:00N 53°05' E 004°17'4 8.0
2018-Feb-12 23:29N 53°08' E 004°22'4 8.1
2018-Feb-12 23:00N 53°11' E 004°26'4 8.7
2018-Feb-12 22:29N 53°15' E 004°29'4 8.8
2018-Feb-12 22:00N 53°19' E 004°32'4 8.7
2018-Feb-12 21:29N 53°23' E 004°34'148 6.4
2018-Feb-11 22:22N 53°57' E 008°38'5 9.0
2018-Feb-11 21:48N 53°53' E 008°43'2 8.4
2018-Feb-11 21:30N 53°51' E 008°46'4 7.6
2018-Feb-11 21:01N 53°51' E 008°52'4 7.3
2018-Feb-11 20:30N 53°51' E 008°59'3 6.4
2018-Feb-11 20:00N 53°52' E 009°04'3 6.6
2018-Feb-11 19:30N 53°53' E 009°09'3 6.3
2018-Feb-11 19:00N 53°53' E 009°14'4 7.2
2018-Feb-11 18:30N 53°51' E 009°20'4 8.2
2018-Feb-11 18:00N 53°47' E 009°23'4 8.9
2018-Feb-11 17:30N 53°44' E 009°27'5 9.9
2018-Feb-11 17:00N 53°39' E 009°31'510.2
2018-Feb-11 16:30N 53°35' E 009°37'510.2
2018-Feb-11 16:01N 53°34' E 009°45'510.3
2018-Feb-11 15:30N 53°33' E 009°53'2 5.0
2018-Feb-11 15:00N 53°31' E 009°57'0 0.2
2018-Feb-11 14:28N 53°31' E 009°57'0 0.1
2018-Feb-11 13:59N 53°31' E 009°57'0 0.0
2018-Feb-11 13:29N 53°31' E 009°57'0 0.1
2018-Feb-11 13:00N 53°31' E 009°57'0 0.7
2018-Feb-11 12:30N 53°31' E 009°56'1 2.4
2018-Feb-11 12:00N 53°33' E 009°56'1 1.5
2018-Feb-11 11:29N 53°32' E 009°58'0 0.0
2018-Feb-11 10:59N 53°32' E 009°58'0 0.0
2018-Feb-11 10:29N 53°32' E 009°58'0 0.0
2018-Feb-11 09:59N 53°32' E 009°58'0 0.0
2018-Feb-11 09:29N 53°32' E 009°58'0 0.0
2018-Feb-11 08:59N 53°32' E 009°58'0 0.0
2018-Feb-11 08:29N 53°32' E 009°58'0 0.0
2018-Feb-11 07:59N 53°32' E 009°58'0 0.0
2018-Feb-11 07:29N 53°32' E 009°58'0 0.0
2018-Feb-11 06:59N 53°32' E 009°58'0 0.0
2018-Feb-11 06:29N 53°32' E 009°58'0 0.0
2018-Feb-11 05:59N 53°32' E 009°58'0 0.0
2018-Feb-11 05:29N 53°32' E 009°58'0 0.0
2018-Feb-11 04:59N 53°32' E 009°58'0 0.0
2018-Feb-11 04:29N 53°32' E 009°58'0 0.0
2018-Feb-11 03:59N 53°32' E 009°58'0 0.0
2018-Feb-11 03:29N 53°32' E 009°58'0 0.0
2018-Feb-11 02:59N 53°32' E 009°58'0 0.0
2018-Feb-11 02:23N 53°32' E 009°58'0 0.0
2018-Feb-11 01:59N 53°32' E 009°58'0 0.0
2018-Feb-11 01:29N 53°32' E 009°58'0 0.0
2018-Feb-11 00:59N 53°32' E 009°58'0 0.0
2018-Feb-11 00:29N 53°32' E 009°58'0 0.0
2018-Feb-10 23:59N 53°32' E 009°58'0 0.0
2018-Feb-10 23:29N 53°32' E 009°58'0 0.0
2018-Feb-10 22:59N 53°32' E 009°58'0 0.9
2018-Feb-10 22:30N 53°32' E 009°57'1 2.3
2018-Feb-10 21:58N 53°31' E 009°57'0 0.0
2018-Feb-10 21:28N 53°31' E 009°57'0 0.0
2018-Feb-10 20:58N 53°31' E 009°57'0 0.0
2018-Feb-10 20:28N 53°31' E 009°57'0 0.0
2018-Feb-10 19:58N 53°31' E 009°57'0 0.0
2018-Feb-10 19:28N 53°31' E 009°57'0 0.0
2018-Feb-10 18:58N 53°31' E 009°57'0 0.0
2018-Feb-10 18:22N 53°31' E 009°57'0 0.0
2018-Feb-10 17:58N 53°31' E 009°57'0 0.0
2018-Feb-10 17:28N 53°31' E 009°57'0 0.0
2018-Feb-10 16:55N 53°31' E 009°57'0 0.0
2018-Feb-10 16:28N 53°31' E 009°57'0 0.0
2018-Feb-10 15:58N 53°31' E 009°57'0 0.0
2018-Feb-10 15:25N 53°31' E 009°57'0 0.0
2018-Feb-10 14:58N 53°31' E 009°57'0 0.0
2018-Feb-10 14:28N 53°31' E 009°57'0 0.0
2018-Feb-10 13:58N 53°31' E 009°57'0 0.0
2018-Feb-10 13:28N 53°31' E 009°57'0 0.8
2018-Feb-10 13:00N 53°31' E 009°56'3 5.4
2018-Feb-10 12:30N 53°33' E 009°52'4 7.3
2018-Feb-10 12:01N 53°34' E 009°46'4 8.1
2018-Feb-10 11:31N 53°34' E 009°40'3 6.8
2018-Feb-10 11:01N 53°36' E 009°35'3 6.1
2018-Feb-10 10:30N 53°38' E 009°31'3 6.6
2018-Feb-10 10:00N 53°42' E 009°30'3 6.5
2018-Feb-10 09:30N 53°44' E 009°26'3 7.0
2018-Feb-10 09:00N 53°47' E 009°23'5 9.2
2018-Feb-10 08:30N 53°51' E 009°19'510.9
2018-Feb-10 08:00N 53°53' E 009°10'1 1.7
2018-Feb-10 07:27N 53°53' E 009°09'0 0.0
2018-Feb-10 07:00N 53°53' E 009°09'0 0.0
2018-Feb-10 06:21N 53°53' E 009°09'0 0.0
2018-Feb-10 06:00N 53°53' E 009°09'0 0.0
2018-Feb-10 05:21N 53°53' E 009°09'0 0.0
2018-Feb-10 05:00N 53°53' E 009°09'1 1.2
2018-Feb-10 04:31N 53°53' E 009°08'3 6.5
2018-Feb-10 04:00N 53°52' E 009°03'5 9.8
2018-Feb-10 03:30N 53°51' E 008°55'4 8.8
2018-Feb-10 03:00N 53°50' E 008°47'4 7.9
2018-Feb-10 02:28N 53°53' E 008°42'4 7.4
2018-Feb-10 02:00N 53°56' E 008°39'4 7.5
2018-Feb-10 01:30N 53°58' E 008°33'6 8.3
2018-Feb-10 00:47N 53°59' E 008°23'3 8.6
2018-Feb-10 00:25N 53°60' E 008°18'60 5.3
2018-Feb-09 13:00N 53°22' E 006°59'2 0.1
2018-Feb-08 11:00N 53°20' E 006°56'0 0.4
2018-Feb-08 10:30N 53°20' E 006°56'3 2.7
2018-Feb-08 09:30N 53°19' E 007°01'7 7.4
2018-Feb-08 08:30N 53°26' E 006°55'103 4.5
2018-Feb-07 09:30N 54°11' E 009°31'4 8.0
2018-Feb-07 09:00N 54°14' E 009°36'4 8.2
2018-Feb-07 08:30N 54°17' E 009°40'4 7.7
2018-Feb-07 07:58N 54°20' E 009°45'28 6.6
2018-Feb-07 03:40N 54°33' E 010°29'4 9.4
2018-Feb-07 03:13N 54°34' E 010°35'2 9.4
2018-Feb-07 03:00N 54°35' E 010°39'4 9.0
2018-Feb-07 02:30N 54°35' E 010°46'5 9.1
2018-Feb-07 02:00N 54°36' E 010°54'5 9.3
2018-Feb-07 01:30N 54°36' E 011°02'4 8.9
2018-Feb-07 01:00N 54°36' E 011°10'4 8.8
2018-Feb-07 00:30N 54°35' E 011°17'4 8.6
2018-Feb-07 00:00N 54°33' E 011°24'5 9.1
2018-Feb-06 23:30N 54°31' E 011°31'5 9.0
2018-Feb-06 23:00N 54°29' E 011°38'4 9.0
2018-Feb-06 22:30N 54°27' E 011°45'4 8.7
2018-Feb-06 22:00N 54°27' E 011°52'6 8.9
2018-Feb-06 21:23N 54°27' E 012°02'97 6.5
2018-Feb-06 06:27N 53°42' E 014°29'4 9.7
2018-Feb-06 06:00N 53°39' E 014°33'5 9.7
2018-Feb-06 05:30N 53°34' E 014°36'4 8.9
2018-Feb-06 05:00N 53°30' E 014°38'4 8.7
2018-Feb-06 04:30N 53°26' E 014°36'2 3.0
2018-Feb-06 04:00N 53°24' E 014°36'0 0.0
2018-Feb-06 03:30N 53°24' E 014°36'0 0.0
2018-Feb-06 03:00N 53°24' E 014°36'0 0.0
2018-Feb-06 02:30N 53°24' E 014°36'0 0.0
2018-Feb-06 02:00N 53°24' E 014°36'0 0.0
2018-Feb-06 01:30N 53°24' E 014°36'0 0.0
2018-Feb-06 01:00N 53°24' E 014°36'0 0.0
2018-Feb-06 00:30N 53°24' E 014°36'0 0.0
2018-Feb-06 00:00N 53°24' E 014°36'0 0.0
2018-Feb-05 23:30N 53°24' E 014°36'0 0.0
2018-Feb-05 23:00N 53°24' E 014°36'0 0.0
2018-Feb-05 22:30N 53°24' E 014°36'0 0.0
2018-Feb-05 22:00N 53°24' E 014°36'0 0.0
2018-Feb-05 21:30N 53°24' E 014°36'0 0.0
2018-Feb-05 20:30N 53°24' E 014°36'0 0.0
2018-Feb-05 20:00N 53°24' E 014°36'0 0.0
2018-Feb-05 19:30N 53°24' E 014°36'0 0.0
2018-Feb-05 19:00N 53°24' E 014°36'0 0.0
2018-Feb-05 18:30N 53°24' E 014°36'0 0.0
2018-Feb-05 18:00N 53°24' E 014°36'0 0.0
2018-Feb-05 17:30N 53°24' E 014°36'0 0.0
2018-Feb-05 17:00N 53°24' E 014°36'0 0.0
2018-Feb-05 16:30N 53°24' E 014°36'0 0.0
2018-Feb-05 16:00N 53°24' E 014°36'0 0.0
2018-Feb-05 15:27N 53°24' E 014°36'0 0.0
2018-Feb-05 15:00N 53°24' E 014°36'0 0.0
2018-Feb-05 14:30N 53°24' E 014°36'0 0.0
2018-Feb-05 14:00N 53°24' E 014°36'0 0.0
2018-Feb-05 13:30N 53°24' E 014°36'0 0.0
2018-Feb-05 13:00N 53°24' E 014°36'0 0.0
2018-Feb-05 12:30N 53°24' E 014°36'0 0.0
2018-Feb-05 12:00N 53°24' E 014°36'0 0.0
2018-Feb-05 11:30N 53°24' E 014°36'0 0.0
2018-Feb-05 11:00N 53°24' E 014°36'0 0.0
2018-Feb-05 10:30N 53°24' E 014°36'0 0.0
2018-Feb-05 10:00N 53°24' E 014°36'0 0.0
2018-Feb-05 09:30N 53°24' E 014°36'0 0.0
2018-Feb-05 09:00N 53°24' E 014°36'0 0.0
2018-Feb-05 08:27N 53°24' E 014°36'0 0.0
2018-Feb-05 08:00N 53°24' E 014°36'0 0.0
2018-Feb-05 07:30N 53°24' E 014°36'0 0.0
2018-Feb-05 06:57N 53°24' E 014°36'  
Track history (hours):
 
Tides and Currents Weather Stations Pressure Air Temp Water Temp Dewpoint Dewpoint Depression Visibility Wind Speed Wind Dir Waves Ship Positions

Nestor

Last reported at 2018-Feb-15 06:37 UTC. Time now 2018-Feb-22 13:16 UTC.
Position N 49°51' W 003°22'.

Length 88 m; draft 5.3 m.

Type: Cargo ship. MMSI: 305620000.

Date/timePositionNaut miles runAvg speedWind from/ knotsBaromVisibWave heightAir tempDewpointWater temp
2018-Feb-15 06:37N 49°51' W 003°22'1 5.6
2018-Feb-15 06:30N 49°52' W 003°22'3 5.5
2018-Feb-15 06:01N 49°53' W 003°18'3 5.6
2018-Feb-15 05:30N 49°55' W 003°14'3 6.0
2018-Feb-15 05:01N 49°56' W 003°10'3 6.3
2018-Feb-15 04:31N 49°58' W 003°06'3 6.8
2018-Feb-15 04:01N 49°59' W 003°02'4 7.3
2018-Feb-15 03:31N 50°01' W 002°56'4 8.1
2018-Feb-15 03:00N 50°02' W 002°50'5 8.9
2018-Feb-15 02:29N 50°03' W 002°43'94 6.6
2018-Feb-14 12:10N 50°29' W 000°21'1 6.4
2018-Feb-14 12:01N 50°29' W 000°20'3 6.5
2018-Feb-14 11:31N 50°30' W 000°15'3 6.9
2018-Feb-14 11:01N 50°31' W 000°09'4 7.0
2018-Feb-14 10:31N 50°32' W 000°04'4 7.2
2018-Feb-14 10:00N 50°33' E 000°02'4 7.1
2018-Feb-14 09:30N 50°34' E 000°07'3 6.9
2018-Feb-14 09:00N 50°34' E 000°12'3 6.7
2018-Feb-14 08:30N 50°35' E 000°17'3 6.6
2018-Feb-14 08:00N 50°36' E 000°22'3 6.8
2018-Feb-14 07:30N 50°37' E 000°27'4 7.4
2018-Feb-14 07:00N 50°38' E 000°33'4 8.0
2018-Feb-14 06:30N 50°41' E 000°38'4 8.6
2018-Feb-14 06:00N 50°43' E 000°44'5 9.3
2018-Feb-14 05:28N 50°46' E 000°50'5 9.8
2018-Feb-14 04:57N 50°49' E 000°57'9 9.7
2018-Feb-14 04:03N 50°54' E 001°08'1 9.9
2018-Feb-14 03:57N 50°55' E 001°09'4 8.8
2018-Feb-14 03:30N 50°57' E 001°14'4 8.5
2018-Feb-14 03:00N 50°60' E 001°19'4 7.7
2018-Feb-14 02:30N 51°02' E 001°24'4 7.3
2018-Feb-14 02:01N 51°05' E 001°28'3 6.8
2018-Feb-14 01:31N 51°07' E 001°32'3 6.1
2018-Feb-14 01:01N 51°09' E 001°36'3 5.8
2018-Feb-14 00:31N 51°11' E 001°39'3 5.9
2018-Feb-14 00:01N 51°13' E 001°43'3 5.7
2018-Feb-13 23:30N 51°15' E 001°46'3 5.6
2018-Feb-13 23:01N 51°18' E 001°47'3 5.2
2018-Feb-13 22:30N 51°20' E 001°49'3 5.7
2018-Feb-13 22:00N 51°23' E 001°51'3 6.2
2018-Feb-13 21:31N 51°25' E 001°53'3 6.6
2018-Feb-13 21:00N 51°28' E 001°57'4 7.0
2018-Feb-13 20:30N 51°31' E 002°00'4 7.1
2018-Feb-13 20:00N 51°33' E 002°04'5 7.5
2018-Feb-13 19:15N 51°38' E 002°10'2 7.3
2018-Feb-13 18:58N 51°39' E 002°12'99 5.9
2018-Feb-13 02:21N 52°55' E 003°56'2 6.8
2018-Feb-13 01:59N 52°57' E 003°58'4 6.8
2018-Feb-13 01:27N 52°59' E 004°03'3 6.8
2018-Feb-13 00:59N 53°01' E 004°07'4 7.2
2018-Feb-13 00:29N 53°03' E 004°12'4 7.7
2018-Feb-13 00:00N 53°05' E 004°17'4 8.0
2018-Feb-12 23:29N 53°08' E 004°22'4 8.1
2018-Feb-12 23:00N 53°11' E 004°26'4 8.7
2018-Feb-12 22:29N 53°15' E 004°29'4 8.8
2018-Feb-12 22:00N 53°19' E 004°32'4 8.7
2018-Feb-12 21:29N 53°23' E 004°34'148 6.4
2018-Feb-11 22:22N 53°57' E 008°38'5 9.0
2018-Feb-11 21:48N 53°53' E 008°43'2 8.4
2018-Feb-11 21:30N 53°51' E 008°46'4 7.6
2018-Feb-11 21:01N 53°51' E 008°52'4 7.3
2018-Feb-11 20:30N 53°51' E 008°59'3 6.4
2018-Feb-11 20:00N 53°52' E 009°04'3 6.6
2018-Feb-11 19:30N 53°53' E 009°09'3 6.3
2018-Feb-11 19:00N 53°53' E 009°14'4 7.2
2018-Feb-11 18:30N 53°51' E 009°20'4 8.2
2018-Feb-11 18:00N 53°47' E 009°23'4 8.9
2018-Feb-11 17:30N 53°44' E 009°27'5 9.9
2018-Feb-11 17:00N 53°39' E 009°31'510.2
2018-Feb-11 16:30N 53°35' E 009°37'510.2
2018-Feb-11 16:01N 53°34' E 009°45'510.3
2018-Feb-11 15:30N 53°33' E 009°53'2 5.0
2018-Feb-11 15:00N 53°31' E 009°57'0 0.2
2018-Feb-11 14:28N 53°31' E 009°57'0 0.1
2018-Feb-11 13:59N 53°31' E 009°57'0 0.0
2018-Feb-11 13:29N 53°31' E 009°57'0 0.1
2018-Feb-11 13:00N 53°31' E 009°57'0 0.7
2018-Feb-11 12:30N 53°31' E 009°56'1 2.4
2018-Feb-11 12:00N 53°33' E 009°56'1 1.5
2018-Feb-11 11:29N 53°32' E 009°58'0 0.0
2018-Feb-11 10:59N 53°32' E 009°58'0 0.0
2018-Feb-11 10:29N 53°32' E 009°58'0 0.0
2018-Feb-11 09:59N 53°32' E 009°58'0 0.0
2018-Feb-11 09:29N 53°32' E 009°58'0 0.0
2018-Feb-11 08:59N 53°32' E 009°58'0 0.0
2018-Feb-11 08:29N 53°32' E 009°58'0 0.0
2018-Feb-11 07:59N 53°32' E 009°58'0 0.0
2018-Feb-11 07:29N 53°32' E 009°58'0 0.0
2018-Feb-11 06:59N 53°32' E 009°58'0 0.0
2018-Feb-11 06:29N 53°32' E 009°58'0 0.0
2018-Feb-11 05:59N 53°32' E 009°58'0 0.0
2018-Feb-11 05:29N 53°32' E 009°58'0 0.0
2018-Feb-11 04:59N 53°32' E 009°58'0 0.0
2018-Feb-11 04:29N 53°32' E 009°58'0 0.0
2018-Feb-11 03:59N 53°32' E 009°58'0 0.0
2018-Feb-11 03:29N 53°32' E 009°58'0 0.0
2018-Feb-11 02:59N 53°32' E 009°58'0 0.0
2018-Feb-11 02:23N 53°32' E 009°58'0 0.0
2018-Feb-11 01:59N 53°32' E 009°58'0 0.0
2018-Feb-11 01:29N 53°32' E 009°58'0 0.0
2018-Feb-11 00:59N 53°32' E 009°58'0 0.0
2018-Feb-11 00:29N 53°32' E 009°58'0 0.0
2018-Feb-10 23:59N 53°32' E 009°58'0 0.0
2018-Feb-10 23:29N 53°32' E 009°58'0 0.0
2018-Feb-10 22:59N 53°32' E 009°58'0 0.9
2018-Feb-10 22:30N 53°32' E 009°57'1 2.3
2018-Feb-10 21:58N 53°31' E 009°57'0 0.0
2018-Feb-10 21:28N 53°31' E 009°57'0 0.0
2018-Feb-10 20:58N 53°31' E 009°57'0 0.0
2018-Feb-10 20:28N 53°31' E 009°57'0 0.0
2018-Feb-10 19:58N 53°31' E 009°57'0 0.0
2018-Feb-10 19:28N 53°31' E 009°57'0 0.0
2018-Feb-10 18:58N 53°31' E 009°57'0 0.0
2018-Feb-10 18:22N 53°31' E 009°57'0 0.0
2018-Feb-10 17:58N 53°31' E 009°57'0 0.0
2018-Feb-10 17:28N 53°31' E 009°57'0 0.0
2018-Feb-10 16:55N 53°31' E 009°57'0 0.0
2018-Feb-10 16:28N 53°31' E 009°57'0 0.0
2018-Feb-10 15:58N 53°31' E 009°57'0 0.0
2018-Feb-10 15:25N 53°31' E 009°57'0 0.0
2018-Feb-10 14:58N 53°31' E 009°57'0 0.0
2018-Feb-10 14:28N 53°31' E 009°57'0 0.0
2018-Feb-10 13:58N 53°31' E 009°57'0 0.0
2018-Feb-10 13:28N 53°31' E 009°57'0 0.8
2018-Feb-10 13:00N 53°31' E 009°56'3 5.4
2018-Feb-10 12:30N 53°33' E 009°52'4 7.3
2018-Feb-10 12:01N 53°34' E 009°46'4 8.1
2018-Feb-10 11:31N 53°34' E 009°40'3 6.8
2018-Feb-10 11:01N 53°36' E 009°35'3 6.1
2018-Feb-10 10:30N 53°38' E 009°31'3 6.6
2018-Feb-10 10:00N 53°42' E 009°30'3 6.5
2018-Feb-10 09:30N 53°44' E 009°26'3 7.0
2018-Feb-10 09:00N 53°47' E 009°23'5 9.2
2018-Feb-10 08:30N 53°51' E 009°19'510.9
2018-Feb-10 08:00N 53°53' E 009°10'1 1.7
2018-Feb-10 07:27N 53°53' E 009°09'0 0.0
2018-Feb-10 07:00N 53°53' E 009°09'0 0.0
2018-Feb-10 06:21N 53°53' E 009°09'0 0.0
2018-Feb-10 06:00N 53°53' E 009°09'0 0.0
2018-Feb-10 05:21N 53°53' E 009°09'0 0.0
2018-Feb-10 05:00N 53°53' E 009°09'1 1.2
2018-Feb-10 04:31N 53°53' E 009°08'3 6.5
2018-Feb-10 04:00N 53°52' E 009°03'5 9.8
2018-Feb-10 03:30N 53°51' E 008°55'4 8.8
2018-Feb-10 03:00N 53°50' E 008°47'4 7.9
2018-Feb-10 02:28N 53°53' E 008°42'4 7.4
2018-Feb-10 02:00N 53°56' E 008°39'4 7.5
2018-Feb-10 01:30N 53°58' E 008°33'6 8.3
2018-Feb-10 00:47N 53°59' E 008°23'3 8.6
2018-Feb-10 00:25N 53°60' E 008°18'60 5.3
2018-Feb-09 13:00N 53°22' E 006°59'2 0.1
2018-Feb-08 11:00N 53°20' E 006°56'0 0.4
2018-Feb-08 10:30N 53°20' E 006°56'3 2.7
2018-Feb-08 09:30N 53°19' E 007°01'7 7.4
2018-Feb-08 08:30N 53°26' E 006°55'103 4.5
2018-Feb-07 09:30N 54°11' E 009°31'4 8.0
2018-Feb-07 09:00N 54°14' E 009°36'4 8.2
2018-Feb-07 08:30N 54°17' E 009°40'4 7.7
2018-Feb-07 07:58N 54°20' E 009°45'28 6.6
2018-Feb-07 03:40N 54°33' E 010°29'4 9.4
2018-Feb-07 03:13N 54°34' E 010°35'2 9.4
2018-Feb-07 03:00N 54°35' E 010°39'4 9.0
2018-Feb-07 02:30N 54°35' E 010°46'5 9.1
2018-Feb-07 02:00N 54°36' E 010°54'5 9.3
2018-Feb-07 01:30N 54°36' E 011°02'4 8.9
2018-Feb-07 01:00N 54°36' E 011°10'4 8.8
2018-Feb-07 00:30N 54°35' E 011°17'4 8.6
2018-Feb-07 00:00N 54°33' E 011°24'5 9.1
2018-Feb-06 23:30N 54°31' E 011°31'5 9.0
2018-Feb-06 23:00N 54°29' E 011°38'4 9.0
2018-Feb-06 22:30N 54°27' E 011°45'4 8.7
2018-Feb-06 22:00N 54°27' E 011°52'6 8.9
2018-Feb-06 21:23N 54°27' E 012°02'97 6.5
2018-Feb-06 06:27N 53°42' E 014°29'4 9.7
2018-Feb-06 06:00N 53°39' E 014°33'5 9.7
2018-Feb-06 05:30N 53°34' E 014°36'4 8.9
2018-Feb-06 05:00N 53°30' E 014°38'4 8.7
2018-Feb-06 04:30N 53°26' E 014°36'2 3.0
2018-Feb-06 04:00N 53°24' E 014°36'0 0.0
2018-Feb-06 03:30N 53°24' E 014°36'0 0.0
2018-Feb-06 03:00N 53°24' E 014°36'0 0.0
2018-Feb-06 02:30N 53°24' E 014°36'0 0.0
2018-Feb-06 02:00N 53°24' E 014°36'0 0.0
2018-Feb-06 01:30N 53°24' E 014°36'0 0.0
2018-Feb-06 01:00N 53°24' E 014°36'0 0.0
2018-Feb-06 00:30N 53°24' E 014°36'0 0.0
2018-Feb-06 00:00N 53°24' E 014°36'0 0.0
2018-Feb-05 23:30N 53°24' E 014°36'0 0.0
2018-Feb-05 23:00N 53°24' E 014°36'0 0.0
2018-Feb-05 22:30N 53°24' E 014°36'0 0.0
2018-Feb-05 22:00N 53°24' E 014°36'0 0.0
2018-Feb-05 21:30N 53°24' E 014°36'0 0.0
2018-Feb-05 20:30N 53°24' E 014°36'0 0.0
2018-Feb-05 20:00N 53°24' E 014°36'0 0.0
2018-Feb-05 19:30N 53°24' E 014°36'0 0.0
2018-Feb-05 19:00N 53°24' E 014°36'0 0.0
2018-Feb-05 18:30N 53°24' E 014°36'0 0.0
2018-Feb-05 18:00N 53°24' E 014°36'0 0.0
2018-Feb-05 17:30N 53°24' E 014°36'0 0.0
2018-Feb-05 17:00N 53°24' E 014°36'0 0.0
2018-Feb-05 16:30N 53°24' E 014°36'0 0.0
2018-Feb-05 16:00N 53°24' E 014°36'0 0.0
2018-Feb-05 15:27N 53°24' E 014°36'0 0.0
2018-Feb-05 15:00N 53°24' E 014°36'0 0.0
2018-Feb-05 14:30N 53°24' E 014°36'0 0.0
2018-Feb-05 14:00N 53°24' E 014°36'0 0.0
2018-Feb-05 13:30N 53°24' E 014°36'0 0.0
2018-Feb-05 13:00N 53°24' E 014°36'0 0.0
2018-Feb-05 12:30N 53°24' E 014°36'0 0.0
2018-Feb-05 12:00N 53°24' E 014°36'0 0.0
2018-Feb-05 11:30N 53°24' E 014°36'0 0.0
2018-Feb-05 11:00N 53°24' E 014°36'0 0.0
2018-Feb-05 10:30N 53°24' E 014°36'0 0.0
2018-Feb-05 10:00N 53°24' E 014°36'0 0.0
2018-Feb-05 09:30N 53°24' E 014°36'0 0.0
2018-Feb-05 09:00N 53°24' E 014°36'0 0.0
2018-Feb-05 08:27N 53°24' E 014°36'0 0.0
2018-Feb-05 08:00N 53°24' E 014°36'0 0.0
2018-Feb-05 07:30N 53°24' E 014°36'0 0.0
2018-Feb-05 06:57N 53°24' E 014°36'  

Dump ship's entire track history